Time;durP1;ratioP1;P1;durP2;ratioP2;P2;SDS_P1;SDS_P2;PMS_P1;PMS_P2;Temp;Humidity;BMP_temperature;BMP_pressure;BME280_temperature;BME280_humidity;BME280_pressure;Samples;Min_cycle;Max_cycle;Signal;HPM_P1;HPM_P2
2021/12/05 00:24:17;;;;;;;0.60;0.43;;;;;;;;;;5012525;28;20568;-72
2021/12/05 00:26:47;;;;;;;3.97;1.10;;;;;;;;;;5011344;28;22031;-73
2021/12/05 00:58:54;;;;;;;0.80;0.80;;;;;;;;;;5012227;28;20443;-72
2021/12/05 01:11:14;;;;;;;0.90;0.90;;;;;;;;;;5009805;28;20447;-72
2021/12/05 01:16:16;;;;;;;3.37;0.87;;;;;;;;;;5010523;28;21037;-73
2021/12/05 01:18:42;;;;;;;0.97;0.90;;;;;;;;;;5010116;28;20432;-72
2021/12/05 01:21:13;;;;;;;0.90;0.60;;;;;;;;;;5010077;28;20788;-72
2021/12/05 01:31:44;;;;;;;1.53;0.93;;;;;;;;;;5010981;28;21081;-72
2021/12/05 01:48:05;;;;;;;2.00;0.97;;;;;;;;;;5010446;28;20478;-72
2021/12/05 01:58:52;;;;;;;1.70;0.93;;;;;;;;;;5009794;28;20880;-72
2021/12/05 02:31:38;;;;;;;0.57;0.57;;;;;;;;;;5008348;28;20503;-72
2021/12/05 02:41:43;;;;;;;2.90;0.63;;;;;;;;;;5008729;28;20509;-72
2021/12/05 02:44:20;;;;;;;2.63;0.67;;;;;;;;;;5008802;28;20472;-72
2021/12/05 02:46:49;;;;;;;3.97;0.90;;;;;;;;;;4998966;28;20479;-72
2021/12/05 02:49:16;;;;;;;2.90;1.07;;;;;;;;;;5007469;28;20447;-72
2021/12/05 02:51:51;;;;;;;2.80;0.70;;;;;;;;;;5008723;28;20451;-72
2021/12/05 02:54:18;;;;;;;1.00;1.00;;;;;;;;;;5007939;28;20431;-73
2021/12/05 02:56:48;;;;;;;1.50;0.50;;;;;;;;;;4997575;28;20443;-72
2021/12/05 03:01:56;;;;;;;0.70;0.70;;;;;;;;;;5006143;28;20482;-72
2021/12/05 03:04:24;;;;;;;2.77;0.70;;;;;;;;;;5007710;28;21022;-73
2021/12/05 03:06:52;;;;;;;0.77;0.77;;;;;;;;;;4999726;28;21769;-72
2021/12/05 03:09:19;;;;;;;7.80;1.00;;;;;;;;;;5009217;28;20470;-72
2021/12/05 03:11:45;;;;;;;3.27;0.70;;;;;;;;;;5008283;28;20523;-72
2021/12/05 03:14:11;;;;;;;1.03;0.40;;;;;;;;;;5007564;28;20470;-72
2021/12/05 03:16:38;;;;;;;0.93;0.53;;;;;;;;;;5002409;28;20959;-72
2021/12/05 03:19:06;;;;;;;3.70;0.53;;;;;;;;;;5002046;28;20455;-72
2021/12/05 03:21:33;;;;;;;2.47;0.40;;;;;;;;;;5008401;28;20570;-72
2021/12/05 03:23:59;;;;;;;0.70;0.70;;;;;;;;;;5008368;28;20488;-72
2021/12/05 03:26:27;;;;;;;0.50;0.40;;;;;;;;;;5001385;28;20486;-72
2021/12/05 03:28:55;;;;;;;3.93;1.80;;;;;;;;;;5004863;28;20816;-73
2021/12/05 03:31:21;;;;;;;5.13;1.20;;;;;;;;;;5006179;28;20441;-72
2021/12/05 03:33:47;;;;;;;1.20;1.07;;;;;;;;;;5006759;28;20533;-72
2021/12/05 03:36:13;;;;;;;1.83;0.80;;;;;;;;;;4999989;28;20594;-72
2021/12/05 03:38:40;;;;;;;10.73;0.90;;;;;;;;;;5006967;28;20459;-72
2021/12/05 03:41:06;;;;;;;0.67;0.67;;;;;;;;;;5008702;28;20424;-72
2021/12/05 03:43:32;;;;;;;0.87;0.60;;;;;;;;;;5007494;28;20432;-72
2021/12/05 03:45:58;;;;;;;0.63;0.50;;;;;;;;;;4968455;28;1057094;-72
2021/12/05 03:48:26;;;;;;;0.60;0.60;;;;;;;;;;5000113;28;20200;-72
2021/12/05 03:50:53;;;;;;;1.40;0.67;;;;;;;;;;5008434;28;20929;-72
2021/12/05 03:53:19;;;;;;;1.93;0.73;;;;;;;;;;5009656;28;20420;-72
2021/12/05 03:55:47;;;;;;;1.00;0.63;;;;;;;;;;4999425;28;20795;-72
2021/12/05 03:58:13;;;;;;;0.93;0.60;;;;;;;;;;5005491;28;21010;-72
2021/12/05 04:00:40;;;;;;;4.43;0.60;;;;;;;;;;5007999;28;20443;-72
2021/12/05 04:03:08;;;;;;;1.30;0.93;;;;;;;;;;5009374;28;20443;-72
2021/12/05 04:05:34;;;;;;;0.80;0.80;;;;;;;;;;5000141;28;21126;-72
2021/12/05 04:08:01;;;;;;;2.90;0.80;;;;;;;;;;5007392;28;20451;-72
2021/12/05 04:10:28;;;;;;;0.60;0.60;;;;;;;;;;5009015;28;20581;-72
2021/12/05 04:12:54;;;;;;;2.00;0.90;;;;;;;;;;5009320;28;20428;-72
2021/12/05 04:15:21;;;;;;;0.97;0.70;;;;;;;;;;5002548;28;21561;-72
2021/12/05 04:17:47;;;;;;;1.90;0.70;;;;;;;;;;5002707;28;20452;-72
2021/12/05 04:20:14;;;;;;;2.30;0.80;;;;;;;;;;5008075;28;20524;-72
2021/12/05 04:22:41;;;;;;;1.80;0.80;;;;;;;;;;5008976;28;20991;-72
2021/12/05 04:25:10;;;;;;;0.50;0.50;;;;;;;;;;5004235;28;20483;-72
2021/12/05 04:27:37;;;;;;;0.53;0.53;;;;;;;;;;4998657;28;20440;-72
2021/12/05 04:30:04;;;;;;;0.87;0.70;;;;;;;;;;5007436;28;20807;-72
2021/12/05 04:32:30;;;;;;;2.53;0.50;;;;;;;;;;5008684;28;20533;-72
2021/12/05 04:34:55;;;;;;;2.30;0.70;;;;;;;;;;5006273;28;20841;-72
2021/12/05 04:37:23;;;;;;;0.80;0.50;;;;;;;;;;4999938;28;20456;-72
2021/12/05 04:39:50;;;;;;;2.73;0.60;;;;;;;;;;5008058;28;20435;-72
2021/12/05 04:42:16;;;;;;;0.57;0.57;;;;;;;;;;5007512;28;20451;-72
2021/12/05 04:44:42;;;;;;;1.00;1.00;;;;;;;;;;5008730;28;20487;-72
2021/12/05 04:47:09;;;;;;;0.50;0.50;;;;;;;;;;5001212;28;20502;-72
2021/12/05 04:49:36;;;;;;;4.27;0.73;;;;;;;;;;5039819;28;20929;-72
2021/12/05 04:52:02;;;;;;;2.73;0.60;;;;;;;;;;5042711;28;20844;-72
2021/12/05 04:54:28;;;;;;;1.07;0.47;;;;;;;;;;5010665;28;20936;-72
2021/12/05 04:56:54;;;;;;;1.03;0.53;;;;;;;;;;5004998;28;20440;-72
2021/12/05 04:59:23;;;;;;;0.90;0.67;;;;;;;;;;5009144;28;20448;-72
2021/12/05 05:01:51;;;;;;;1.03;0.60;;;;;;;;;;5011032;28;20881;-72
2021/12/05 05:04:24;;;;;;;3.73;0.50;;;;;;;;;;5011744;28;20494;-72
2021/12/05 05:06:50;;;;;;;1.20;0.50;;;;;;;;;;5006139;28;20471;-72
2021/12/05 05:09:17;;;;;;;2.57;0.83;;;;;;;;;;5002154;28;20447;-72
2021/12/05 05:11:43;;;;;;;0.40;0.40;;;;;;;;;;5010720;28;20498;-72
2021/12/05 05:14:10;;;;;;;0.57;0.57;;;;;;;;;;5009859;28;20436;-72
2021/12/05 05:16:36;;;;;;;1.73;1.27;;;;;;;;;;5010550;28;20432;-72
2021/12/05 05:19:03;;;;;;;3.30;0.50;;;;;;;;;;5004611;28;20557;-72
2021/12/05 05:21:39;;;;;;;3.03;0.93;;;;;;;;;;5010780;28;20432;-72
2021/12/05 05:47:33;;;;;;;0.60;0.60;;;;;;;;;;5010301;28;20475;-72
2021/12/05 05:49:59;;;;;;;0.90;0.70;;;;;;;;;;5002120;28;20834;-72
2021/12/05 05:52:27;;;;;;;4.33;0.90;;;;;;;;;;5010868;28;20431;-72
2021/12/05 05:54:55;;;;;;;0.60;0.60;;;;;;;;;;5010676;28;20432;-72
2021/12/05 06:00:00;;;;;;;0.30;0.30;;;;;;;;;;4999078;28;20451;-72
2021/12/05 06:05:11;;;;;;;0.57;0.57;;;;;;;;;;5009941;28;20479;-72
2021/12/05 06:07:43;;;;;;;2.90;0.60;;;;;;;;;;5010677;28;20947;-72
2021/12/05 06:10:14;;;;;;;0.80;0.80;;;;;;;;;;5002041;28;20445;-73
2021/12/05 06:12:41;;;;;;;0.53;0.50;;;;;;;;;;5010489;28;20450;-73
2021/12/05 06:15:08;;;;;;;1.97;0.50;;;;;;;;;;5009760;28;20440;-72
2021/12/05 06:17:34;;;;;;;0.30;0.30;;;;;;;;;;5010714;28;20443;-72
2021/12/05 06:20:00;;;;;;;0.40;0.40;;;;;;;;;;5004052;28;20437;-72
2021/12/05 06:22:26;;;;;;;0.73;0.73;;;;;;;;;;5006242;28;20857;-72
2021/12/05 06:24:52;;;;;;;2.97;0.50;;;;;;;;;;5009732;28;20502;-72
2021/12/05 06:27:18;;;;;;;0.37;0.37;;;;;;;;;;5042454;28;20447;-72
2021/12/05 06:29:53;;;;;;;0.60;0.50;;;;;;;;;;5004699;28;20441;-72
2021/12/05 06:32:40;;;;;;;3.03;0.40;;;;;;;;;;5005581;28;20440;-72
2021/12/05 06:38:07;;;;;;;0.87;0.40;;;;;;;;;;5009848;28;20443;-72
2021/12/05 06:46:12;;;;;;;1.23;0.90;;;;;;;;;;5009872;28;20900;-72
2021/12/05 06:48:38;;;;;;;1.63;0.90;;;;;;;;;;5010623;28;20917;-72
2021/12/05 06:51:04;;;;;;;1.00;0.80;;;;;;;;;;5006396;28;20530;-72
2021/12/05 06:53:31;;;;;;;2.30;0.70;;;;;;;;;;5009222;28;20511;-72
2021/12/05 06:55:57;;;;;;;0.50;0.50;;;;;;;;;;5008948;28;20451;-72
2021/12/05 06:58:23;;;;;;;1.43;0.60;;;;;;;;;;5009261;28;20432;-72
2021/12/05 07:00:49;;;;;;;1.20;0.77;;;;;;;;;;5035976;28;20450;-72
2021/12/05 07:03:15;;;;;;;2.50;0.60;;;;;;;;;;5006463;28;20498;-72
2021/12/05 07:05:51;;;;;;;3.50;0.77;;;;;;;;;;5009803;28;20484;-72
2021/12/05 07:08:17;;;;;;;0.60;0.60;;;;;;;;;;5007595;28;20424;-72
2021/12/05 07:10:57;;;;;;;0.43;0.40;;;;;;;;;;5007006;28;20455;-73
2021/12/05 07:18:41;;;;;;;1.70;1.70;;;;;;;;;;5010113;28;20455;-72
2021/12/05 07:23:58;;;;;;;5.47;0.73;;;;;;;;;;5009477;28;20531;-72
2021/12/05 07:42:38;;;;;;;0.50;0.50;;;;;;;;;;5003409;28;20502;-72
2021/12/05 07:45:06;;;;;;;3.20;1.90;;;;;;;;;;5008830;28;20486;-71
2021/12/05 07:47:33;;;;;;;1.00;0.43;;;;;;;;;;5006275;28;20459;-72
2021/12/05 07:50:10;;;;;;;1.20;1.17;;;;;;;;;;5004745;28;20452;-72
2021/12/05 07:52:47;;;;;;;0.50;0.50;;;;;;;;;;5005310;28;20439;-72
2021/12/05 08:00:30;;;;;;;3.67;0.53;;;;;;;;;;5006201;28;20568;-72
2021/12/05 08:16:45;;;;;;;0.50;0.50;;;;;;;;;;5009151;28;20466;-72
2021/12/05 08:19:14;;;;;;;1.20;0.50;;;;;;;;;;5008733;28;20440;-72
2021/12/05 08:21:40;;;;;;;0.47;0.40;;;;;;;;;;5011602;28;20519;-72
2021/12/05 08:24:06;;;;;;;1.07;0.80;;;;;;;;;;5006020;28;20830;-72
2021/12/05 08:26:34;;;;;;;0.70;0.60;;;;;;;;;;5011195;28;20444;-72
2021/12/05 08:29:09;;;;;;;2.10;0.70;;;;;;;;;;5009227;28;20415;-72
2021/12/05 09:38:26;;;;;;;2.20;1.50;;;;;;;;;;5003581;28;21126;-72
2021/12/05 10:03:35;;;;;;;3.60;0.70;;;;;;;;;;4999219;28;20501;-73
2021/12/05 10:11:44;;;;;;;1.00;1.00;;;;;;;;;;4990998;28;20479;-74
2021/12/05 10:14:44;;;;;;;1.60;1.50;;;;;;;;;;5000117;28;20456;-73
2021/12/05 10:20:13;;;;;;;4.93;1.23;;;;;;;;;;5003638;28;20447;-74
2021/12/05 10:26:25;;;;;;;0.77;0.67;;;;;;;;;;5009930;28;20998;-72
2021/12/05 10:36:21;;;;;;;2.70;1.60;;;;;;;;;;5006404;28;20342;-72
2021/12/05 10:38:54;;;;;;;3.40;0.93;;;;;;;;;;5006062;28;20505;-71
2021/12/05 10:41:26;;;;;;;2.17;0.97;;;;;;;;;;5001873;28;20451;-72
2021/12/05 10:43:56;;;;;;;3.10;1.20;;;;;;;;;;5003957;28;20443;-73
2021/12/05 10:46:24;;;;;;;6.13;2.17;;;;;;;;;;4997409;28;20468;-72
2021/12/05 10:49:00;;;;;;;10.13;1.93;;;;;;;;;;5037695;28;20540;-73
2021/12/05 10:51:28;;;;;;;3.23;2.70;;;;;;;;;;5006973;28;20426;-72
2021/12/05 10:53:56;;;;;;;5.60;4.83;;;;;;;;;;5000268;28;20535;-72
2021/12/05 10:56:22;;;;;;;4.00;2.37;;;;;;;;;;4998322;28;20429;-71
2021/12/05 10:58:48;;;;;;;9.23;6.67;;;;;;;;;;5039917;28;20432;-72
2021/12/05 11:01:13;;;;;;;17.47;8.27;;;;;;;;;;4999388;28;20952;-72
2021/12/05 11:03:40;;;;;;;37.43;20.60;;;;;;;;;;5006926;28;20844;-72
2021/12/05 11:06:26;;;;;;;16.20;9.40;;;;;;;;;;5003217;28;20552;-73
2021/12/05 11:08:57;;;;;;;5.03;4.60;;;;;;;;;;5007684;28;20466;-72
2021/12/05 11:11:23;;;;;;;6.90;6.20;;;;;;;;;;5006208;28;20851;-72
2021/12/05 11:13:50;;;;;;;10.60;6.67;;;;;;;;;;5006292;28;20918;-72
2021/12/05 11:16:35;;;;;;;7.00;6.40;;;;;;;;;;5007271;28;20436;-74
2021/12/05 11:19:01;;;;;;;2.60;2.30;;;;;;;;;;5009978;28;20778;-73
2021/12/05 11:21:33;;;;;;;3.30;2.60;;;;;;;;;;5004994;28;20428;-72
2021/12/05 11:24:11;;;;;;;4.33;4.10;;;;;;;;;;5004638;28;21006;-73
2021/12/05 11:26:38;;;;;;;6.77;4.20;;;;;;;;;;5038773;28;20428;-72
2021/12/05 11:29:05;;;;;;;1.67;1.67;;;;;;;;;;5041626;28;20466;-72
2021/12/05 11:31:31;;;;;;;2.83;2.03;;;;;;;;;;5005652;28;20444;-72
2021/12/05 11:33:58;;;;;;;2.20;2.00;;;;;;;;;;5006229;28;20833;-72
2021/12/05 11:36:28;;;;;;;6.10;4.50;;;;;;;;;;5007140;28;20421;-73
2021/12/05 11:38:54;;;;;;;3.53;3.40;;;;;;;;;;5009386;28;20436;-72
2021/12/05 11:41:22;;;;;;;12.60;8.30;;;;;;;;;;5006527;28;20527;-72
2021/12/05 11:43:51;;;;;;;4.80;2.67;;;;;;;;;;5005417;28;20443;-83
2021/12/05 11:46:17;;;;;;;7.27;5.30;;;;;;;;;;5006725;28;20475;-72
2021/12/05 11:48:51;;;;;;;5.23;2.80;;;;;;;;;;5008783;28;20436;-72
2021/12/05 11:51:23;;;;;;;11.40;8.83;;;;;;;;;;5005871;28;20439;-77
2021/12/05 11:53:54;;;;;;;8.90;7.57;;;;;;;;;;5005139;28;20936;-69
2021/12/05 11:56:23;;;;;;;3.43;2.40;;;;;;;;;;5009823;28;20514;-68
2021/12/05 11:59:07;;;;;;;2.60;2.40;;;;;;;;;;5013339;28;20412;-68
2021/12/05 12:01:35;;;;;;;4.37;1.40;;;;;;;;;;5009258;28;20448;-68
2021/12/05 12:04:01;;;;;;;2.30;2.20;;;;;;;;;;5007834;28;20475;-68
2021/12/05 12:06:27;;;;;;;1.63;1.60;;;;;;;;;;5010606;28;20799;-68
2021/12/05 12:08:55;;;;;;;1.47;0.87;;;;;;;;;;5008164;28;20912;-69
2021/12/05 12:11:21;;;;;;;2.50;1.30;;;;;;;;;;5003446;28;20443;-72
2021/12/05 12:13:49;;;;;;;1.80;1.70;;;;;;;;;;5007387;28;20448;-72
2021/12/05 12:16:15;;;;;;;20.92;11.10;;;;;;;;;;5010213;28;20976;-72
2021/12/05 12:18:45;;;;;;;10.30;6.70;;;;;;;;;;5012780;28;20208;-72
2021/12/05 12:21:18;;;;;;;1.67;1.57;;;;;;;;;;5002760;28;20796;-72
2021/12/05 12:23:45;;;;;;;4.43;1.10;;;;;;;;;;5000898;28;20427;-71
2021/12/05 12:26:11;;;;;;;2.93;0.87;;;;;;;;;;5008490;28;20432;-72
2021/12/05 12:28:38;;;;;;;0.83;0.60;;;;;;;;;;5013078;28;20499;-73
2021/12/05 12:31:17;;;;;;;0.80;0.80;;;;;;;;;;5009725;28;20427;-73
2021/12/05 12:33:48;;;;;;;2.77;1.30;;;;;;;;;;5008223;28;20503;-73
2021/12/05 12:36:15;;;;;;;4.77;1.10;;;;;;;;;;5009960;28;20895;-73
2021/12/05 12:38:42;;;;;;;16.07;9.50;;;;;;;;;;5012976;28;20420;-73
2021/12/05 12:41:08;;;;;;;11.67;6.33;;;;;;;;;;5010399;28;20471;-70
2021/12/05 12:43:37;;;;;;;3.40;1.90;;;;;;;;;;5008836;28;20920;-72
2021/12/05 12:46:22;;;;;;;6.90;2.20;;;;;;;;;;5008741;28;20483;-73
2021/12/05 12:48:49;;;;;;;2.53;1.80;;;;;;;;;;5010373;28;20428;-73
2021/12/05 12:51:27;;;;;;;1.80;1.70;;;;;;;;;;5007803;28;20443;-73
2021/12/05 12:53:55;;;;;;;3.20;3.00;;;;;;;;;;5008415;28;21009;-67
2021/12/05 12:56:22;;;;;;;1.73;1.63;;;;;;;;;;5008919;28;20432;-73
2021/12/05 12:58:55;;;;;;;2.00;1.90;;;;;;;;;;5012471;28;20940;-71
2021/12/05 13:02:29;;;;;;;2.70;2.60;;;;;;;;;;5008795;28;20447;-73
2021/12/05 13:12:33;;;;;;;1.53;0.70;;;;;;;;;;5008150;28;20491;-74
2021/12/05 13:15:07;;;;;;;0.80;0.80;;;;;;;;;;5008462;28;20469;-74
2021/12/05 13:17:40;;;;;;;0.63;0.63;;;;;;;;;;5007360;28;20466;-73
2021/12/05 13:20:07;;;;;;;1.77;0.70;;;;;;;;;;5006664;28;20778;-69
2021/12/05 13:22:33;;;;;;;1.17;0.67;;;;;;;;;;5007350;28;20456;-75
2021/12/05 13:25:07;;;;;;;0.47;0.47;;;;;;;;;;5006181;28;20547;-73
2021/12/05 13:27:35;;;;;;;0.50;0.40;;;;;;;;;;5011472;28;20428;-73
2021/12/05 13:30:01;;;;;;;0.67;0.40;;;;;;;;;;5008715;28;20420;-73
2021/12/05 13:32:29;;;;;;;0.40;0.40;;;;;;;;;;5009965;28;20466;-73
2021/12/05 13:35:00;;;;;;;0.83;0.80;;;;;;;;;;5005841;28;20979;-73
2021/12/05 13:37:47;;;;;;;1.10;1.10;;;;;;;;;;5011565;28;20424;-73
2021/12/05 13:40:22;;;;;;;0.53;0.53;;;;;;;;;;5008932;28;20422;-73
2021/12/05 13:42:50;;;;;;;0.87;0.87;;;;;;;;;;5007636;28;20443;-73
2021/12/05 13:45:29;;;;;;;0.87;0.87;;;;;;;;;;5008930;28;20475;-73
2021/12/05 13:47:54;;;;;;;6.03;3.70;;;;;;;;;;5011607;28;20540;-73
2021/12/05 13:50:29;;;;;;;1.40;1.23;;;;;;;;;;5008303;28;20478;-73
2021/12/05 13:53:05;;;;;;;1.77;1.67;;;;;;;;;;5038387;28;20515;-73
2021/12/05 13:55:31;;;;;;;2.10;1.03;;;;;;;;;;5008444;28;20432;-73
2021/12/05 13:58:16;;;;;;;1.20;1.13;;;;;;;;;;5011407;28;20772;-73
2021/12/05 14:00:44;;;;;;;1.00;0.90;;;;;;;;;;5007437;28;20435;-73
2021/12/05 14:03:10;;;;;;;0.70;0.70;;;;;;;;;;5008483;28;20424;-73
2021/12/05 14:05:36;;;;;;;3.80;1.00;;;;;;;;;;5007654;28;20484;-73
2021/12/05 14:08:02;;;;;;;0.70;0.70;;;;;;;;;;5010792;28;20423;-73
2021/12/05 14:10:43;;;;;;;6.97;1.27;;;;;;;;;;5008976;28;20463;-73
2021/12/05 14:13:10;;;;;;;0.83;0.60;;;;;;;;;;5006749;28;20506;-73
2021/12/05 14:15:36;;;;;;;1.83;0.93;;;;;;;;;;5008740;28;20467;-73
2021/12/05 14:18:02;;;;;;;1.67;0.93;;;;;;;;;;5041655;28;20948;-73
2021/12/05 14:20:29;;;;;;;1.07;0.67;;;;;;;;;;5008124;28;20424;-73
2021/12/05 14:22:57;;;;;;;0.90;0.90;;;;;;;;;;5006412;28;20797;-73
2021/12/05 14:25:24;;;;;;;0.87;0.57;;;;;;;;;;5007993;28;20575;-73
2021/12/05 14:27:53;;;;;;;2.87;0.60;;;;;;;;;;5010629;28;20428;-73
2021/12/05 14:30:21;;;;;;;0.80;0.80;;;;;;;;;;5007767;28;20908;-73
2021/12/05 14:32:48;;;;;;;0.80;0.80;;;;;;;;;;5041704;28;20912;-73
2021/12/05 14:35:19;;;;;;;0.63;0.63;;;;;;;;;;5007913;28;20979;-73
2021/12/05 14:37:47;;;;;;;5.33;1.70;;;;;;;;;;5009831;28;20443;-73
2021/12/05 14:40:17;;;;;;;3.23;1.90;;;;;;;;;;5008098;28;20794;-73
2021/12/05 14:42:45;;;;;;;3.03;2.83;;;;;;;;;;5008292;28;20809;-73
2021/12/05 14:45:20;;;;;;;3.03;2.83;;;;;;;;;;5007204;28;20483;-73
2021/12/05 14:47:47;;;;;;;9.93;6.07;;;;;;;;;;5009667;28;20443;-78
2021/12/05 14:50:23;;;;;;;1.57;1.47;;;;;;;;;;5004324;28;20447;-73
2021/12/05 14:52:54;;;;;;;4.15;3.67;;;;;;;;;;5004567;28;20423;-71
2021/12/05 14:55:21;;;;;;;1.47;1.20;;;;;;;;;;5006722;28;20666;-72
2021/12/05 14:57:49;;;;;;;0.60;0.60;;;;;;;;;;5008044;28;20798;-73
2021/12/05 15:00:18;;;;;;;1.00;1.00;;;;;;;;;;5003701;28;20429;-73
2021/12/05 15:02:44;;;;;;;2.67;1.20;;;;;;;;;;5007286;28;20913;-73
2021/12/05 15:05:12;;;;;;;0.87;0.87;;;;;;;;;;5006166;28;20487;-73
2021/12/05 15:07:38;;;;;;;4.03;0.70;;;;;;;;;;5008043;28;20441;-72
2021/12/05 15:10:05;;;;;;;1.10;1.10;;;;;;;;;;5006580;28;20432;-73
2021/12/05 15:12:33;;;;;;;1.67;1.53;;;;;;;;;;5001925;28;20453;-73
2021/12/05 15:15:19;;;;;;;5.47;1.60;;;;;;;;;;5004547;28;20435;-73
2021/12/05 15:17:45;;;;;;;4.30;3.23;;;;;;;;;;5008459;28;20435;-75
2021/12/05 15:20:33;;;;;;;2.40;2.30;;;;;;;;;;5003751;28;20444;-74
2021/12/05 15:23:07;;;;;;;3.27;2.97;;;;;;;;;;5004595;28;20437;-73
2021/12/05 15:25:34;;;;;;;6.10;4.30;;;;;;;;;;5005298;28;20476;-73
2021/12/05 15:28:00;;;;;;;4.17;1.60;;;;;;;;;;5004252;28;21182;-73
2021/12/05 15:30:35;;;;;;;1.43;1.33;;;;;;;;;;5004511;28;20936;-73
2021/12/05 15:33:06;;;;;;;1.47;1.23;;;;;;;;;;5005026;28;20806;-73
2021/12/05 15:35:33;;;;;;;2.87;2.73;;;;;;;;;;5003438;28;20435;-74
2021/12/05 15:38:02;;;;;;;1.90;1.23;;;;;;;;;;5008657;28;20428;-73
2021/12/05 15:40:30;;;;;;;2.27;2.07;;;;;;;;;;5004795;28;20489;-73
2021/12/05 15:43:00;;;;;;;1.83;1.73;;;;;;;;;;5004838;28;20558;-73
2021/12/05 15:45:26;;;;;;;1.13;0.80;;;;;;;;;;5036633;28;20788;-72
2021/12/05 15:47:52;;;;;;;1.87;1.70;;;;;;;;;;5005590;28;20443;-74
2021/12/05 15:50:20;;;;;;;1.40;1.37;;;;;;;;;;5005547;28;20440;-73
2021/12/05 15:52:51;;;;;;;2.57;1.40;;;;;;;;;;5003121;28;20424;-73
2021/12/05 15:55:17;;;;;;;1.40;1.10;;;;;;;;;;5003577;28;20442;-73
2021/12/05 15:57:45;;;;;;;2.20;2.00;;;;;;;;;;5008508;28;20428;-73
2021/12/05 16:00:14;;;;;;;3.10;1.30;;;;;;;;;;5038211;28;20482;-73
2021/12/05 16:02:41;;;;;;;1.23;1.23;;;;;;;;;;5005881;28;20432;-73
2021/12/05 16:05:15;;;;;;;1.60;1.40;;;;;;;;;;5005747;28;20487;-74
2021/12/05 16:07:41;;;;;;;4.27;2.77;;;;;;;;;;5007972;28;20519;-73
2021/12/05 16:10:09;;;;;;;1.13;1.13;;;;;;;;;;5005885;28;20435;-73
2021/12/05 16:12:38;;;;;;;1.10;1.07;;;;;;;;;;5001655;28;20455;-74
2021/12/05 16:15:04;;;;;;;0.80;0.80;;;;;;;;;;5002463;28;20435;-73
2021/12/05 16:17:30;;;;;;;1.00;1.00;;;;;;;;;;5007745;28;20428;-74
2021/12/05 16:20:15;;;;;;;0.93;0.93;;;;;;;;;;5002382;28;20432;-73
2021/12/05 16:23:00;;;;;;;1.37;1.37;;;;;;;;;;5003286;28;20940;-73
2021/12/05 16:25:26;;;;;;;1.20;1.10;;;;;;;;;;5001297;28;20505;-73
2021/12/05 16:27:54;;;;;;;0.70;0.70;;;;;;;;;;5006860;28;20510;-74
2021/12/05 16:30:21;;;;;;;0.63;0.63;;;;;;;;;;5004261;28;20476;-73
2021/12/05 16:32:47;;;;;;;4.53;4.13;;;;;;;;;;5004291;28;20430;-73
2021/12/05 16:35:24;;;;;;;1.37;1.37;;;;;;;;;;5004984;28;20460;-73
2021/12/05 16:37:49;;;;;;;1.20;1.20;;;;;;;;;;5007006;28;20847;-73
2021/12/05 16:40:15;;;;;;;0.90;0.90;;;;;;;;;;5037543;28;20474;-74
2021/12/05 16:42:44;;;;;;;1.50;1.50;;;;;;;;;;5007374;28;21139;-73
2021/12/05 16:45:11;;;;;;;1.10;1.10;;;;;;;;;;5006086;28;21052;-73
2021/12/05 16:47:37;;;;;;;0.90;0.90;;;;;;;;;;5001782;28;20988;-73
2021/12/05 16:50:07;;;;;;;1.80;0.87;;;;;;;;;;5003340;28;21119;-73
2021/12/05 16:52:37;;;;;;;2.70;2.60;;;;;;;;;;5006252;28;20452;-74
2021/12/05 16:55:11;;;;;;;8.37;6.70;;;;;;;;;;4996100;28;20808;-73
2021/12/05 16:57:44;;;;;;;1.57;1.57;;;;;;;;;;5007762;28;20447;-74
2021/12/05 17:00:12;;;;;;;2.77;1.87;;;;;;;;;;5003959;28;20495;-73
2021/12/05 17:02:44;;;;;;;1.77;1.70;;;;;;;;;;5003592;28;20448;-73
2021/12/05 17:05:18;;;;;;;1.30;1.30;;;;;;;;;;5003686;28;20495;-74
2021/12/05 17:07:56;;;;;;;1.40;1.40;;;;;;;;;;5008025;28;20785;-73
2021/12/05 17:10:22;;;;;;;0.90;0.90;;;;;;;;;;5004678;28;20809;-73
2021/12/05 17:12:54;;;;;;;1.57;1.47;;;;;;;;;;5002504;28;20432;-73
2021/12/05 17:15:25;;;;;;;2.43;1.20;;;;;;;;;;5005259;28;20452;-73
2021/12/05 17:18:00;;;;;;;1.07;1.07;;;;;;;;;;5004099;28;20812;-73
2021/12/05 17:20:28;;;;;;;2.30;2.30;;;;;;;;;;5004559;28;20447;-73
2021/12/05 17:23:17;;;;;;;2.97;2.87;;;;;;;;;;5003756;28;20438;-74
2021/12/05 17:25:44;;;;;;;4.23;3.97;;;;;;;;;;5005148;28;20492;-73
2021/12/05 17:28:11;;;;;;;2.50;2.40;;;;;;;;;;5006379;28;20544;-73
2021/12/05 17:30:49;;;;;;;2.70;2.60;;;;;;;;;;5008736;28;20447;-73
2021/12/05 17:33:33;;;;;;;10.13;6.23;;;;;;;;;;5005593;28;20428;-73
2021/12/05 17:36:11;;;;;;;3.90;3.60;;;;;;;;;;5003661;28;20436;-73
2021/12/05 17:38:37;;;;;;;3.43;3.23;;;;;;;;;;5007042;28;20423;-73
2021/12/05 17:41:03;;;;;;;3.10;2.90;;;;;;;;;;5008626;28;20862;-73
2021/12/05 17:43:29;;;;;;;1.70;1.60;;;;;;;;;;5001800;28;20515;-73
2021/12/05 17:45:56;;;;;;;2.53;2.30;;;;;;;;;;5004706;28;20538;-73
2021/12/05 17:48:22;;;;;;;2.50;2.30;;;;;;;;;;5007594;28;20490;-73
2021/12/05 17:50:52;;;;;;;3.30;3.00;;;;;;;;;;5009778;28;20441;-73
2021/12/05 17:53:19;;;;;;;5.50;4.67;;;;;;;;;;5004640;28;20428;-73
2021/12/05 17:55:49;;;;;;;2.87;2.40;;;;;;;;;;5008166;28;20451;-73
2021/12/05 17:58:23;;;;;;;2.30;2.20;;;;;;;;;;5007358;28;20440;-74
2021/12/05 18:02:35;;;;;;;2.37;2.37;;;;;;;;;;5037979;28;20515;-73
2021/12/05 18:03:42;;;;;;;2.93;2.73;;;;;;;;;;5001864;28;20498;-73
2021/12/05 18:06:08;;;;;;;1.50;1.40;;;;;;;;;;5008657;28;20566;-73
2021/12/05 18:08:34;;;;;;;2.30;2.17;;;;;;;;;;5007267;28;20432;-73
2021/12/05 18:11:08;;;;;;;1.80;1.50;;;;;;;;;;5006046;28;20520;-73
2021/12/05 18:13:36;;;;;;;1.57;1.47;;;;;;;;;;5001321;28;20437;-73
2021/12/05 18:16:13;;;;;;;1.43;1.43;;;;;;;;;;5008855;28;20686;-74
2021/12/05 18:18:39;;;;;;;1.57;1.57;;;;;;;;;;5008088;28;20531;-73
2021/12/05 18:21:06;;;;;;;3.73;1.93;;;;;;;;;;5008289;28;20424;-73
2021/12/05 18:23:38;;;;;;;1.50;1.40;;;;;;;;;;5003851;28;20441;-73
2021/12/05 18:26:05;;;;;;;1.60;1.60;;;;;;;;;;5039789;28;20479;-74
2021/12/05 18:28:31;;;;;;;2.17;1.53;;;;;;;;;;5007498;28;20440;-73
2021/12/05 18:30:57;;;;;;;1.77;1.77;;;;;;;;;;5009953;28;20444;-74
2021/12/05 18:33:26;;;;;;;1.20;1.20;;;;;;;;;;5000514;28;20887;-74
2021/12/05 18:35:52;;;;;;;2.10;1.10;;;;;;;;;;5009079;28;20521;-73
2021/12/05 18:38:23;;;;;;;1.23;1.23;;;;;;;;;;5006097;28;20776;-73
2021/12/05 18:40:51;;;;;;;1.10;1.10;;;;;;;;;;5009530;28;20861;-74
2021/12/05 18:43:21;;;;;;;1.30;0.93;;;;;;;;;;5002885;28;20531;-73
2021/12/05 18:45:47;;;;;;;0.70;0.70;;;;;;;;;;5007488;28;20496;-73
2021/12/05 18:48:13;;;;;;;4.17;1.43;;;;;;;;;;5004163;28;20440;-75
2021/12/05 18:50:40;;;;;;;0.90;0.90;;;;;;;;;;5009036;28;20435;-72
2021/12/05 18:53:10;;;;;;;0.93;0.93;;;;;;;;;;4999983;28;20944;-73
2021/12/05 18:55:36;;;;;;;2.43;2.23;;;;;;;;;;5006266;28;20432;-73
2021/12/05 18:58:08;;;;;;;3.30;3.00;;;;;;;;;;5004956;28;20432;-73
2021/12/05 19:04:16;;;;;;;6.23;5.30;;;;;;;;;;5007122;28;20432;-73
2021/12/05 19:06:12;;;;;;;15.77;10.30;;;;;;;;;;5007529;28;21149;-73
2021/12/05 19:09:08;;;;;;;12.40;9.53;;;;;;;;;;5006949;28;20428;-73
2021/12/05 19:11:45;;;;;;;15.90;11.33;;;;;;;;;;5009348;28;20491;-73
2021/12/05 19:14:22;;;;;;;10.63;8.50;;;;;;;;;;5002593;28;20443;-73
2021/12/05 19:16:49;;;;;;;7.07;6.40;;;;;;;;;;5008902;28;20940;-72
2021/12/05 19:19:18;;;;;;;6.50;5.13;;;;;;;;;;5002616;28;20813;-73
2021/12/05 19:21:46;;;;;;;8.37;6.43;;;;;;;;;;5004514;28;20535;-73
2021/12/05 19:24:13;;;;;;;5.33;4.93;;;;;;;;;;5001773;28;20494;-73
2021/12/05 19:26:39;;;;;;;9.83;7.60;;;;;;;;;;5038304;28;21006;-73
2021/12/05 19:29:05;;;;;;;20.10;13.80;;;;;;;;;;5006170;28;20916;-73
2021/12/05 19:31:31;;;;;;;13.30;10.80;;;;;;;;;;5009073;28;20485;-73
2021/12/05 19:33:58;;;;;;;11.00;8.93;;;;;;;;;;4998363;28;20535;-73
2021/12/05 19:36:26;;;;;;;7.00;5.50;;;;;;;;;;5007890;28;20460;-72
2021/12/05 19:38:53;;;;;;;4.43;4.03;;;;;;;;;;5004475;28;20514;-73
2021/12/05 19:41:19;;;;;;;4.57;4.17;;;;;;;;;;5009155;28;20849;-73
2021/12/05 19:43:45;;;;;;;4.03;3.57;;;;;;;;;;5002281;28;20420;-73
2021/12/05 19:46:13;;;;;;;5.37;4.53;;;;;;;;;;5005796;28;20566;-73
2021/12/05 19:48:39;;;;;;;4.27;3.93;;;;;;;;;;5006532;28;20530;-74
2021/12/05 19:51:07;;;;;;;2.93;2.83;;;;;;;;;;5008638;28;20420;-73
2021/12/05 19:53:34;;;;;;;3.47;3.37;;;;;;;;;;5001541;28;20485;-74
2021/12/05 19:56:01;;;;;;;3.53;3.43;;;;;;;;;;5008560;28;20499;-73
2021/12/05 19:58:27;;;;;;;3.70;3.60;;;;;;;;;;5005117;28;20487;-73
2021/12/05 20:00:53;;;;;;;7.03;2.77;;;;;;;;;;5002865;28;20436;-73
2021/12/05 20:03:19;;;;;;;1.80;1.80;;;;;;;;;;5001724;28;20439;-73
2021/12/05 20:05:45;;;;;;;1.47;1.47;;;;;;;;;;5007495;28;20843;-72
2021/12/05 20:08:11;;;;;;;4.97;3.27;;;;;;;;;;5003323;28;20539;-73
2021/12/05 20:10:39;;;;;;;1.00;1.00;;;;;;;;;;5006390;28;20444;-73
2021/12/05 20:13:05;;;;;;;1.60;1.50;;;;;;;;;;5001467;28;20444;-73
2021/12/05 20:15:32;;;;;;;1.40;1.40;;;;;;;;;;5041154;28;20436;-73
2021/12/05 20:17:59;;;;;;;1.50;1.40;;;;;;;;;;5007902;28;20519;-72
2021/12/05 20:20:26;;;;;;;2.93;2.73;;;;;;;;;;5008676;28;20928;-73
2021/12/05 20:22:52;;;;;;;5.80;3.80;;;;;;;;;;5006083;28;20439;-73
2021/12/05 20:25:19;;;;;;;3.07;2.80;;;;;;;;;;5012438;28;20484;-73
2021/12/05 20:27:45;;;;;;;6.57;5.43;;;;;;;;;;5009379;28;20518;-73
2021/12/05 20:30:13;;;;;;;6.43;5.63;;;;;;;;;;5011839;28;20935;-73
2021/12/05 20:32:39;;;;;;;6.20;5.70;;;;;;;;;;5007949;28;20783;-73